sensor_id;sensor_type;location;lat;lon;timestamp;temperature;humidity
62007;DHT22;47963;53.008;6.754;2022-11-20T00:02:16;-0.20;99.90
62007;DHT22;47963;53.008;6.754;2022-11-20T00:04:41;-0.10;99.90
62007;DHT22;47963;53.008;6.754;2022-11-20T00:07:07;-0.10;99.90
62007;DHT22;47963;53.008;6.754;2022-11-20T00:09:32;-0.10;99.90
62007;DHT22;47963;53.008;6.754;2022-11-20T00:11:58;-0.10;99.90
62007;DHT22;47963;53.008;6.754;2022-11-20T00:14:24;-0.10;99.90
62007;DHT22;47963;53.008;6.754;2022-11-20T00:16:49;-0.10;99.90
62007;DHT22;47963;53.008;6.754;2022-11-20T00:19:15;-0.10;99.90
62007;DHT22;47963;53.008;6.754;2022-11-20T00:21:41;-0.20;99.90
62007;DHT22;47963;53.008;6.754;2022-11-20T00:24:08;-0.10;99.90
62007;DHT22;47963;53.008;6.754;2022-11-20T00:26:35;-0.20;99.90
62007;DHT22;47963;53.008;6.754;2022-11-20T00:29:02;-0.20;99.90
62007;DHT22;47963;53.008;6.754;2022-11-20T00:31:28;-0.10;99.90
62007;DHT22;47963;53.008;6.754;2022-11-20T00:33:54;-0.20;99.90
62007;DHT22;47963;53.008;6.754;2022-11-20T00:36:22;-0.20;99.90
62007;DHT22;47963;53.008;6.754;2022-11-20T00:38:52;-0.20;99.90
62007;DHT22;47963;53.008;6.754;2022-11-20T00:41:18;-0.20;99.90
62007;DHT22;47963;53.008;6.754;2022-11-20T00:43:43;-0.20;99.90
62007;DHT22;47963;53.008;6.754;2022-11-20T00:46:14;-0.10;99.90
62007;DHT22;47963;53.008;6.754;2022-11-20T00:48:41;-0.10;99.90
62007;DHT22;47963;53.008;6.754;2022-11-20T00:51:07;-0.20;99.90
62007;DHT22;47963;53.008;6.754;2022-11-20T00:53:33;-0.20;99.90
62007;DHT22;47963;53.008;6.754;2022-11-20T00:56:07;-0.20;99.90
62007;DHT22;47963;53.008;6.754;2022-11-20T00:58:38;-0.20;99.90
62007;DHT22;47963;53.008;6.754;2022-11-20T01:01:09;-0.20;99.90
62007;DHT22;47963;53.008;6.754;2022-11-20T01:03:37;-0.20;99.90
62007;DHT22;47963;53.008;6.754;2022-11-20T01:06:12;-0.10;99.90
62007;DHT22;47963;53.008;6.754;2022-11-20T01:08:38;0.00;99.90
62007;DHT22;47963;53.008;6.754;2022-11-20T01:11:06;-0.10;99.90
62007;DHT22;47963;53.008;6.754;2022-11-20T01:13:32;-0.10;99.90
62007;DHT22;47963;53.008;6.754;2022-11-20T01:16:15;-0.10;99.90
62007;DHT22;47963;53.008;6.754;2022-11-20T01:18:43;-0.10;99.90
62007;DHT22;47963;53.008;6.754;2022-11-20T01:21:11;-0.10;99.90
62007;DHT22;47963;53.008;6.754;2022-11-20T01:23:39;-0.20;99.90
62007;DHT22;47963;53.008;6.754;2022-11-20T01:26:13;-0.20;99.90
62007;DHT22;47963;53.008;6.754;2022-11-20T01:28:39;-0.20;99.90
62007;DHT22;47963;53.008;6.754;2022-11-20T01:31:18;-0.20;99.90
62007;DHT22;47963;53.008;6.754;2022-11-20T01:33:45;-0.10;99.90
62007;DHT22;47963;53.008;6.754;2022-11-20T01:36:12;-0.10;99.90
62007;DHT22;47963;53.008;6.754;2022-11-20T01:38:38;-0.10;99.90
62007;DHT22;47963;53.008;6.754;2022-11-20T01:41:05;-0.10;99.90
62007;DHT22;47963;53.008;6.754;2022-11-20T01:43:31;-0.10;99.90
62007;DHT22;47963;53.008;6.754;2022-11-20T01:46:08;-0.10;99.90
62007;DHT22;47963;53.008;6.754;2022-11-20T01:51:44;-0.10;99.90
62007;DHT22;47963;53.008;6.754;2022-11-20T01:54:21;-0.10;99.90
62007;DHT22;47963;53.008;6.754;2022-11-20T01:56:51;0.00;99.90
62007;DHT22;47963;53.008;6.754;2022-11-20T01:59:19;0.00;99.90
62007;DHT22;47963;53.008;6.754;2022-11-20T02:01:45;0.00;99.90
62007;DHT22;47963;53.008;6.754;2022-11-20T02:04:11;0.00;99.90
62007;DHT22;47963;53.008;6.754;2022-11-20T02:06:48;0.00;99.90
62007;DHT22;47963;53.008;6.754;2022-11-20T02:09:16;0.10;99.90
62007;DHT22;47963;53.008;6.754;2022-11-20T02:11:42;0.10;99.90
62007;DHT22;47963;53.008;6.754;2022-11-20T02:14:08;0.10;99.90
62007;DHT22;47963;53.008;6.754;2022-11-20T02:16:37;0.10;99.90
62007;DHT22;47963;53.008;6.754;2022-11-20T02:19:08;0.10;99.90
62007;DHT22;47963;53.008;6.754;2022-11-20T02:21:56;0.10;99.90
62007;DHT22;47963;53.008;6.754;2022-11-20T02:24:25;0.20;99.90
62007;DHT22;47963;53.008;6.754;2022-11-20T02:27:01;0.10;99.90
62007;DHT22;47963;53.008;6.754;2022-11-20T02:29:52;0.20;99.90
62007;DHT22;47963;53.008;6.754;2022-11-20T02:32:30;0.10;99.90
62007;DHT22;47963;53.008;6.754;2022-11-20T02:34:56;0.00;99.90
62007;DHT22;47963;53.008;6.754;2022-11-20T02:37:23;0.10;99.90
62007;DHT22;47963;53.008;6.754;2022-11-20T02:39:51;0.00;99.90
62007;DHT22;47963;53.008;6.754;2022-11-20T02:42:17;0.00;99.90
62007;DHT22;47963;53.008;6.754;2022-11-20T02:44:43;0.00;99.90
62007;DHT22;47963;53.008;6.754;2022-11-20T02:47:09;0.10;99.90
62007;DHT22;47963;53.008;6.754;2022-11-20T02:49:35;0.10;99.90
62007;DHT22;47963;53.008;6.754;2022-11-20T02:52:01;0.10;99.90
62007;DHT22;47963;53.008;6.754;2022-11-20T02:54:26;0.10;99.90
62007;DHT22;47963;53.008;6.754;2022-11-20T02:56:52;0.20;99.90
62007;DHT22;47963;53.008;6.754;2022-11-20T02:59:18;0.10;99.90
62007;DHT22;47963;53.008;6.754;2022-11-20T03:01:43;0.10;99.90
62007;DHT22;47963;53.008;6.754;2022-11-20T03:04:09;0.10;99.90
62007;DHT22;47963;53.008;6.754;2022-11-20T03:06:35;0.10;99.90
62007;DHT22;47963;53.008;6.754;2022-11-20T03:09:00;0.10;99.90
62007;DHT22;47963;53.008;6.754;2022-11-20T03:11:26;0.20;99.90
62007;DHT22;47963;53.008;6.754;2022-11-20T03:13:52;0.20;99.90
62007;DHT22;47963;53.008;6.754;2022-11-20T03:16:19;0.20;99.90
62007;DHT22;47963;53.008;6.754;2022-11-20T03:18:46;0.20;99.90
62007;DHT22;47963;53.008;6.754;2022-11-20T03:21:12;0.20;99.90
62007;DHT22;47963;53.008;6.754;2022-11-20T03:23:39;0.20;99.90
62007;DHT22;47963;53.008;6.754;2022-11-20T03:26:14;0.20;99.90
62007;DHT22;47963;53.008;6.754;2022-11-20T03:28:41;0.30;99.90
62007;DHT22;47963;53.008;6.754;2022-11-20T03:31:09;0.30;99.90
62007;DHT22;47963;53.008;6.754;2022-11-20T03:33:36;0.30;99.90
62007;DHT22;47963;53.008;6.754;2022-11-20T03:36:07;0.30;99.90
62007;DHT22;47963;53.008;6.754;2022-11-20T03:38:33;0.20;99.90
62007;DHT22;47963;53.008;6.754;2022-11-20T03:41:06;0.30;99.90
62007;DHT22;47963;53.008;6.754;2022-11-20T03:43:33;0.30;99.90
62007;DHT22;47963;53.008;6.754;2022-11-20T03:45:59;0.30;99.90
62007;DHT22;47963;53.008;6.754;2022-11-20T03:48:25;0.30;99.90
62007;DHT22;47963;53.008;6.754;2022-11-20T03:50:52;0.30;99.90
62007;DHT22;47963;53.008;6.754;2022-11-20T03:53:18;0.30;99.90
62007;DHT22;47963;53.008;6.754;2022-11-20T03:55:44;0.30;99.90
62007;DHT22;47963;53.008;6.754;2022-11-20T03:58:10;0.40;99.90
62007;DHT22;47963;53.008;6.754;2022-11-20T04:00:35;0.40;99.90
62007;DHT22;47963;53.008;6.754;2022-11-20T04:03:02;0.40;99.90
62007;DHT22;47963;53.008;6.754;2022-11-20T04:05:28;0.30;99.90
62007;DHT22;47963;53.008;6.754;2022-11-20T04:07:53;0.30;99.90
62007;DHT22;47963;53.008;6.754;2022-11-20T04:10:19;0.30;99.90
62007;DHT22;47963;53.008;6.754;2022-11-20T04:12:45;0.30;99.90
62007;DHT22;47963;53.008;6.754;2022-11-20T04:15:11;0.30;99.90
62007;DHT22;47963;53.008;6.754;2022-11-20T04:17:36;0.30;99.90
62007;DHT22;47963;53.008;6.754;2022-11-20T04:20:02;0.30;99.90
62007;DHT22;47963;53.008;6.754;2022-11-20T04:22:28;0.20;99.90
62007;DHT22;47963;53.008;6.754;2022-11-20T04:24:54;0.30;99.90
62007;DHT22;47963;53.008;6.754;2022-11-20T04:27:19;0.20;99.90
62007;DHT22;47963;53.008;6.754;2022-11-20T04:29:45;0.20;99.90
62007;DHT22;47963;53.008;6.754;2022-11-20T04:32:10;0.30;99.90
62007;DHT22;47963;53.008;6.754;2022-11-20T04:34:36;0.30;99.90
62007;DHT22;47963;53.008;6.754;2022-11-20T04:37:02;0.30;99.90
62007;DHT22;47963;53.008;6.754;2022-11-20T04:39:27;0.30;99.90
62007;DHT22;47963;53.008;6.754;2022-11-20T04:41:53;0.30;99.90
62007;DHT22;47963;53.008;6.754;2022-11-20T04:44:39;0.30;99.90
62007;DHT22;47963;53.008;6.754;2022-11-20T04:47:04;0.40;99.90
62007;DHT22;47963;53.008;6.754;2022-11-20T04:49:30;0.40;99.90
62007;DHT22;47963;53.008;6.754;2022-11-20T04:51:57;0.30;99.90
62007;DHT22;47963;53.008;6.754;2022-11-20T04:54:23;0.40;99.90
62007;DHT22;47963;53.008;6.754;2022-11-20T04:56:49;0.40;99.90
62007;DHT22;47963;53.008;6.754;2022-11-20T04:59:16;0.30;99.90
62007;DHT22;47963;53.008;6.754;2022-11-20T05:01:41;0.40;99.90
62007;DHT22;47963;53.008;6.754;2022-11-20T05:04:07;0.40;99.90
62007;DHT22;47963;53.008;6.754;2022-11-20T05:06:33;0.40;99.90
62007;DHT22;47963;53.008;6.754;2022-11-20T05:08:59;0.50;99.90
62007;DHT22;47963;53.008;6.754;2022-11-20T05:11:24;0.50;99.90
62007;DHT22;47963;53.008;6.754;2022-11-20T05:13:51;0.50;99.90
62007;DHT22;47963;53.008;6.754;2022-11-20T05:16:22;0.40;99.90
62007;DHT22;47963;53.008;6.754;2022-11-20T05:18:49;0.50;99.90
62007;DHT22;47963;53.008;6.754;2022-11-20T05:21:15;0.40;99.90
62007;DHT22;47963;53.008;6.754;2022-11-20T05:23:41;0.50;99.90
62007;DHT22;47963;53.008;6.754;2022-11-20T05:26:12;0.50;99.90
62007;DHT22;47963;53.008;6.754;2022-11-20T05:28:38;0.50;99.90
62007;DHT22;47963;53.008;6.754;2022-11-20T05:31:24;0.50;99.90
62007;DHT22;47963;53.008;6.754;2022-11-20T05:33:50;0.60;99.90
62007;DHT22;47963;53.008;6.754;2022-11-20T05:36:17;0.50;99.90
62007;DHT22;47963;53.008;6.754;2022-11-20T05:38:43;0.60;99.90
62007;DHT22;47963;53.008;6.754;2022-11-20T05:41:14;0.50;99.90
62007;DHT22;47963;53.008;6.754;2022-11-20T05:43:42;0.50;99.90
62007;DHT22;47963;53.008;6.754;2022-11-20T05:46:09;0.50;99.90
62007;DHT22;47963;53.008;6.754;2022-11-20T05:48:36;0.50;99.90
62007;DHT22;47963;53.008;6.754;2022-11-20T05:51:04;0.50;99.90
62007;DHT22;47963;53.008;6.754;2022-11-20T05:53:32;0.50;99.90
62007;DHT22;47963;53.008;6.754;2022-11-20T05:55:59;0.50;99.90
62007;DHT22;47963;53.008;6.754;2022-11-20T05:58:25;0.50;99.90
62007;DHT22;47963;53.008;6.754;2022-11-20T06:00:52;0.50;99.90
62007;DHT22;47963;53.008;6.754;2022-11-20T06:03:17;0.50;99.90
62007;DHT22;47963;53.008;6.754;2022-11-20T06:05:43;0.40;99.90
62007;DHT22;47963;53.008;6.754;2022-11-20T06:08:09;0.40;99.90
62007;DHT22;47963;53.008;6.754;2022-11-20T06:10:34;0.40;99.90
62007;DHT22;47963;53.008;6.754;2022-11-20T06:13:00;0.40;99.90
62007;DHT22;47963;53.008;6.754;2022-11-20T06:15:25;0.40;99.90
62007;DHT22;47963;53.008;6.754;2022-11-20T06:17:55;0.40;99.90
62007;DHT22;47963;53.008;6.754;2022-11-20T06:20:21;0.40;99.90
62007;DHT22;47963;53.008;6.754;2022-11-20T06:22:47;0.40;99.90
62007;DHT22;47963;53.008;6.754;2022-11-20T06:25:13;0.40;99.90
62007;DHT22;47963;53.008;6.754;2022-11-20T06:27:39;0.40;99.90
62007;DHT22;47963;53.008;6.754;2022-11-20T06:30:05;0.40;99.90
62007;DHT22;47963;53.008;6.754;2022-11-20T06:32:31;0.40;99.90
62007;DHT22;47963;53.008;6.754;2022-11-20T06:34:56;0.40;99.90
62007;DHT22;47963;53.008;6.754;2022-11-20T06:37:22;0.40;99.90
62007;DHT22;47963;53.008;6.754;2022-11-20T06:39:48;0.40;99.90
62007;DHT22;47963;53.008;6.754;2022-11-20T06:42:14;0.50;99.90
62007;DHT22;47963;53.008;6.754;2022-11-20T06:44:40;0.50;99.90
62007;DHT22;47963;53.008;6.754;2022-11-20T06:47:05;0.50;99.90
62007;DHT22;47963;53.008;6.754;2022-11-20T06:49:31;0.50;99.90
62007;DHT22;47963;53.008;6.754;2022-11-20T06:51:57;0.50;99.90
62007;DHT22;47963;53.008;6.754;2022-11-20T06:54:23;0.50;99.90
62007;DHT22;47963;53.008;6.754;2022-11-20T06:56:48;0.40;99.90
62007;DHT22;47963;53.008;6.754;2022-11-20T06:59:14;0.50;99.90
62007;DHT22;47963;53.008;6.754;2022-11-20T07:01:40;0.50;99.90
62007;DHT22;47963;53.008;6.754;2022-11-20T07:04:06;0.50;99.90
62007;DHT22;47963;53.008;6.754;2022-11-20T07:06:31;0.50;99.90
62007;DHT22;47963;53.008;6.754;2022-11-20T07:08:57;0.60;99.90
62007;DHT22;47963;53.008;6.754;2022-11-20T07:11:23;0.60;99.90
62007;DHT22;47963;53.008;6.754;2022-11-20T07:13:49;0.60;99.90
62007;DHT22;47963;53.008;6.754;2022-11-20T07:16:15;0.60;99.90
62007;DHT22;47963;53.008;6.754;2022-11-20T07:18:40;0.60;99.90
62007;DHT22;47963;53.008;6.754;2022-11-20T07:21:08;0.60;99.90
62007;DHT22;47963;53.008;6.754;2022-11-20T07:23:34;0.60;99.90
62007;DHT22;47963;53.008;6.754;2022-11-20T07:26:04;0.60;99.90
62007;DHT22;47963;53.008;6.754;2022-11-20T07:28:30;0.60;99.90
62007;DHT22;47963;53.008;6.754;2022-11-20T07:30:56;0.60;99.90
62007;DHT22;47963;53.008;6.754;2022-11-20T07:33:21;0.60;99.90
62007;DHT22;47963;53.008;6.754;2022-11-20T07:35:47;0.60;99.90
62007;DHT22;47963;53.008;6.754;2022-11-20T07:38:13;0.60;99.90
62007;DHT22;47963;53.008;6.754;2022-11-20T07:40:38;0.70;99.90
62007;DHT22;47963;53.008;6.754;2022-11-20T07:43:04;0.70;99.90
62007;DHT22;47963;53.008;6.754;2022-11-20T07:45:30;0.70;99.90
62007;DHT22;47963;53.008;6.754;2022-11-20T07:47:55;0.70;99.90
62007;DHT22;47963;53.008;6.754;2022-11-20T07:50:21;0.70;99.90
62007;DHT22;47963;53.008;6.754;2022-11-20T07:52:47;0.70;99.90
62007;DHT22;47963;53.008;6.754;2022-11-20T07:55:12;0.70;99.90
62007;DHT22;47963;53.008;6.754;2022-11-20T07:57:38;0.70;99.90
62007;DHT22;47963;53.008;6.754;2022-11-20T08:00:05;0.70;99.90
62007;DHT22;47963;53.008;6.754;2022-11-20T08:02:32;0.70;99.90
62007;DHT22;47963;53.008;6.754;2022-11-20T08:04:58;0.70;99.90
62007;DHT22;47963;53.008;6.754;2022-11-20T08:07:23;0.70;99.90
62007;DHT22;47963;53.008;6.754;2022-11-20T08:09:49;0.70;99.90
62007;DHT22;47963;53.008;6.754;2022-11-20T08:12:18;0.70;99.90
62007;DHT22;47963;53.008;6.754;2022-11-20T08:15:04;0.80;99.90
62007;DHT22;47963;53.008;6.754;2022-11-20T08:17:30;0.80;99.90
62007;DHT22;47963;53.008;6.754;2022-11-20T08:19:55;0.80;99.90
62007;DHT22;47963;53.008;6.754;2022-11-20T08:22:21;0.80;99.90
62007;DHT22;47963;53.008;6.754;2022-11-20T08:24:47;0.80;99.90
62007;DHT22;47963;53.008;6.754;2022-11-20T08:27:13;0.80;99.90
62007;DHT22;47963;53.008;6.754;2022-11-20T08:29:39;0.80;99.90
62007;DHT22;47963;53.008;6.754;2022-11-20T08:32:05;0.80;99.90
62007;DHT22;47963;53.008;6.754;2022-11-20T08:34:30;0.80;99.90
62007;DHT22;47963;53.008;6.754;2022-11-20T08:36:56;0.80;99.90
62007;DHT22;47963;53.008;6.754;2022-11-20T08:39:21;0.80;99.90
62007;DHT22;47963;53.008;6.754;2022-11-20T08:41:47;0.80;99.90
62007;DHT22;47963;53.008;6.754;2022-11-20T08:44:13;0.90;99.90
62007;DHT22;47963;53.008;6.754;2022-11-20T08:46:40;0.90;99.90
62007;DHT22;47963;53.008;6.754;2022-11-20T08:49:12;0.80;99.90
62007;DHT22;47963;53.008;6.754;2022-11-20T08:51:38;0.90;99.90
62007;DHT22;47963;53.008;6.754;2022-11-20T08:54:05;0.90;99.90
62007;DHT22;47963;53.008;6.754;2022-11-20T08:56:31;0.90;99.90
62007;DHT22;47963;53.008;6.754;2022-11-20T08:58:57;0.90;99.90
62007;DHT22;47963;53.008;6.754;2022-11-20T09:01:24;1.00;99.90
62007;DHT22;47963;53.008;6.754;2022-11-20T09:03:50;1.00;99.90
62007;DHT22;47963;53.008;6.754;2022-11-20T09:06:16;1.00;99.90
62007;DHT22;47963;53.008;6.754;2022-11-20T09:08:42;1.00;99.90
62007;DHT22;47963;53.008;6.754;2022-11-20T09:11:08;1.10;99.90
62007;DHT22;47963;53.008;6.754;2022-11-20T09:13:35;1.10;99.90
62007;DHT22;47963;53.008;6.754;2022-11-20T09:16:10;1.00;99.90
62007;DHT22;47963;53.008;6.754;2022-11-20T09:18:36;1.10;99.90
62007;DHT22;47963;53.008;6.754;2022-11-20T09:21:05;1.20;99.90
62007;DHT22;47963;53.008;6.754;2022-11-20T09:23:33;1.20;99.90
62007;DHT22;47963;53.008;6.754;2022-11-20T09:26:02;1.20;99.90
62007;DHT22;47963;53.008;6.754;2022-11-20T09:28:29;1.20;99.90
62007;DHT22;47963;53.008;6.754;2022-11-20T09:30:55;1.20;99.90
62007;DHT22;47963;53.008;6.754;2022-11-20T09:33:21;1.20;99.90
62007;DHT22;47963;53.008;6.754;2022-11-20T09:35:46;1.20;99.90
62007;DHT22;47963;53.008;6.754;2022-11-20T09:38:12;1.20;99.90
62007;DHT22;47963;53.008;6.754;2022-11-20T09:40:45;1.30;99.90
62007;DHT22;47963;53.008;6.754;2022-11-20T09:46:21;1.40;99.90
62007;DHT22;47963;53.008;6.754;2022-11-20T09:51:39;1.40;99.90
62007;DHT22;47963;53.008;6.754;2022-11-20T09:54:17;1.40;99.90
62007;DHT22;47963;53.008;6.754;2022-11-20T09:56:55;1.50;99.90
62007;DHT22;47963;53.008;6.754;2022-11-20T09:59:36;1.50;99.90
62007;DHT22;47963;53.008;6.754;2022-11-20T10:02:16;1.50;99.90
62007;DHT22;47963;53.008;6.754;2022-11-20T10:05:09;1.50;99.90
62007;DHT22;47963;53.008;6.754;2022-11-20T10:07:41;1.60;99.90
62007;DHT22;47963;53.008;6.754;2022-11-20T10:10:16;1.70;99.90
62007;DHT22;47963;53.008;6.754;2022-11-20T10:13:11;1.70;99.90
62007;DHT22;47963;53.008;6.754;2022-11-20T10:15:53;1.60;99.90
62007;DHT22;47963;53.008;6.754;2022-11-20T10:26:31;1.90;99.90
62007;DHT22;47963;53.008;6.754;2022-11-20T10:29:19;1.90;99.90
62007;DHT22;47963;53.008;6.754;2022-11-20T10:32:00;1.90;99.90
62007;DHT22;47963;53.008;6.754;2022-11-20T10:34:33;2.00;99.90
62007;DHT22;47963;53.008;6.754;2022-11-20T10:37:13;2.00;99.90
62007;DHT22;47963;53.008;6.754;2022-11-20T10:39:50;2.10;99.90
62007;DHT22;47963;53.008;6.754;2022-11-20T10:42:37;2.20;99.90
62007;DHT22;47963;53.008;6.754;2022-11-20T10:50:43;2.30;99.90
62007;DHT22;47963;53.008;6.754;2022-11-20T10:56:24;2.40;99.90
62007;DHT22;47963;53.008;6.754;2022-11-20T11:01:42;2.50;99.90
62007;DHT22;47963;53.008;6.754;2022-11-20T11:04:42;2.50;99.90
62007;DHT22;47963;53.008;6.754;2022-11-20T11:07:27;2.50;99.90
62007;DHT22;47963;53.008;6.754;2022-11-20T11:09:56;2.50;99.90
62007;DHT22;47963;53.008;6.754;2022-11-20T11:12:25;2.50;99.90
62007;DHT22;47963;53.008;6.754;2022-11-20T11:14:53;2.60;99.90
62007;DHT22;47963;53.008;6.754;2022-11-20T11:17:31;2.60;99.90
62007;DHT22;47963;53.008;6.754;2022-11-20T11:22:44;2.60;99.90
62007;DHT22;47963;53.008;6.754;2022-11-20T11:25:27;2.60;99.90
62007;DHT22;47963;53.008;6.754;2022-11-20T11:27:55;2.70;99.90
62007;DHT22;47963;53.008;6.754;2022-11-20T11:30:22;2.60;99.90
62007;DHT22;47963;53.008;6.754;2022-11-20T11:32:48;2.60;99.90
62007;DHT22;47963;53.008;6.754;2022-11-20T11:35:25;2.60;99.90
62007;DHT22;47963;53.008;6.754;2022-11-20T11:37:54;2.60;99.90
62007;DHT22;47963;53.008;6.754;2022-11-20T11:40:28;2.60;99.90
62007;DHT22;47963;53.008;6.754;2022-11-20T11:42:59;2.70;99.90
62007;DHT22;47963;53.008;6.754;2022-11-20T11:45:25;2.70;99.90
62007;DHT22;47963;53.008;6.754;2022-11-20T11:47:52;2.70;99.90
62007;DHT22;47963;53.008;6.754;2022-11-20T11:50:22;2.80;99.90
62007;DHT22;47963;53.008;6.754;2022-11-20T11:53:08;2.70;99.90
62007;DHT22;47963;53.008;6.754;2022-11-20T11:55:36;2.70;99.90
62007;DHT22;47963;53.008;6.754;2022-11-20T12:00:50;2.70;99.90
62007;DHT22;47963;53.008;6.754;2022-11-20T12:03:24;2.80;99.90
62007;DHT22;47963;53.008;6.754;2022-11-20T12:05:58;2.70;99.90
62007;DHT22;47963;53.008;6.754;2022-11-20T12:08:31;2.70;99.90
62007;DHT22;47963;53.008;6.754;2022-11-20T12:11:24;2.80;99.90
62007;DHT22;47963;53.008;6.754;2022-11-20T12:16:50;2.80;99.90
62007;DHT22;47963;53.008;6.754;2022-11-20T12:19:16;2.90;99.90
62007;DHT22;47963;53.008;6.754;2022-11-20T12:21:57;2.90;99.90
62007;DHT22;47963;53.008;6.754;2022-11-20T12:27:05;3.00;99.90
62007;DHT22;47963;53.008;6.754;2022-11-20T12:30:02;3.00;99.90
62007;DHT22;47963;53.008;6.754;2022-11-20T12:53:37;3.30;99.90
62007;DHT22;47963;53.008;6.754;2022-11-20T12:56:28;3.30;99.90
62007;DHT22;47963;53.008;6.754;2022-11-20T12:59:15;3.20;99.90
62007;DHT22;47963;53.008;6.754;2022-11-20T13:05:01;3.30;99.90
62007;DHT22;47963;53.008;6.754;2022-11-20T13:07:29;3.30;99.90
62007;DHT22;47963;53.008;6.754;2022-11-20T13:09:56;3.30;99.90
62007;DHT22;47963;53.008;6.754;2022-11-20T13:12:36;3.50;99.90
62007;DHT22;47963;53.008;6.754;2022-11-20T13:15:14;3.60;99.90
62007;DHT22;47963;53.008;6.754;2022-11-20T13:20:16;3.60;99.90
62007;DHT22;47963;53.008;6.754;2022-11-20T13:25:10;3.60;99.90
62007;DHT22;47963;53.008;6.754;2022-11-20T13:27:47;3.60;99.90
62007;DHT22;47963;53.008;6.754;2022-11-20T13:30:16;3.60;99.90
62007;DHT22;47963;53.008;6.754;2022-11-20T13:35:35;3.60;99.90
62007;DHT22;47963;53.008;6.754;2022-11-20T13:38:12;3.70;99.90
62007;DHT22;47963;53.008;6.754;2022-11-20T13:40:50;3.70;99.90
62007;DHT22;47963;53.008;6.754;2022-11-20T13:43:35;3.80;99.90
62007;DHT22;47963;53.008;6.754;2022-11-20T13:46:04;3.80;99.90
62007;DHT22;47963;53.008;6.754;2022-11-20T13:48:33;3.90;99.90
62007;DHT22;47963;53.008;6.754;2022-11-20T13:51:10;4.00;99.90
62007;DHT22;47963;53.008;6.754;2022-11-20T13:57:08;3.90;99.90
62007;DHT22;47963;53.008;6.754;2022-11-20T14:01:57;3.80;99.90
62007;DHT22;47963;53.008;6.754;2022-11-20T14:04:30;3.70;99.90
62007;DHT22;47963;53.008;6.754;2022-11-20T14:06:58;3.60;99.90
62007;DHT22;47963;53.008;6.754;2022-11-20T14:09:29;3.60;99.90
62007;DHT22;47963;53.008;6.754;2022-11-20T14:11:55;3.60;99.90
62007;DHT22;47963;53.008;6.754;2022-11-20T14:14:24;3.50;99.90
62007;DHT22;47963;53.008;6.754;2022-11-20T14:16:52;3.50;99.90
62007;DHT22;47963;53.008;6.754;2022-11-20T14:21:53;3.50;99.90
62007;DHT22;47963;53.008;6.754;2022-11-20T14:24:20;3.40;99.90
62007;DHT22;47963;53.008;6.754;2022-11-20T14:26:46;3.40;99.90
62007;DHT22;47963;53.008;6.754;2022-11-20T14:31:44;3.30;99.90
62007;DHT22;47963;53.008;6.754;2022-11-20T14:34:17;3.30;99.90
62007;DHT22;47963;53.008;6.754;2022-11-20T14:36:44;3.30;99.90
62007;DHT22;47963;53.008;6.754;2022-11-20T14:39:29;3.30;99.90
62007;DHT22;47963;53.008;6.754;2022-11-20T14:41:56;3.30;99.90
62007;DHT22;47963;53.008;6.754;2022-11-20T14:44:26;3.20;99.90
62007;DHT22;47963;53.008;6.754;2022-11-20T14:46:52;3.20;99.90
62007;DHT22;47963;53.008;6.754;2022-11-20T14:49:19;3.10;99.90
62007;DHT22;47963;53.008;6.754;2022-11-20T14:51:45;3.10;99.90
62007;DHT22;47963;53.008;6.754;2022-11-20T14:54:15;3.00;99.90
62007;DHT22;47963;53.008;6.754;2022-11-20T14:56:41;3.00;99.90
62007;DHT22;47963;53.008;6.754;2022-11-20T14:59:08;3.00;99.90
62007;DHT22;47963;53.008;6.754;2022-11-20T15:01:35;3.00;99.90
62007;DHT22;47963;53.008;6.754;2022-11-20T15:04:10;2.90;99.90
62007;DHT22;47963;53.008;6.754;2022-11-20T15:06:37;2.90;99.90
62007;DHT22;47963;53.008;6.754;2022-11-20T15:09:04;2.90;99.90
62007;DHT22;47963;53.008;6.754;2022-11-20T15:11:35;2.80;99.90
62007;DHT22;47963;53.008;6.754;2022-11-20T15:14:04;2.70;99.90
62007;DHT22;47963;53.008;6.754;2022-11-20T15:16:31;2.70;99.90
62007;DHT22;47963;53.008;6.754;2022-11-20T15:18:57;2.70;99.90
62007;DHT22;47963;53.008;6.754;2022-11-20T15:21:23;2.60;99.90
62007;DHT22;47963;53.008;6.754;2022-11-20T15:23:49;2.60;99.90
62007;DHT22;47963;53.008;6.754;2022-11-20T15:26:22;2.60;99.90
62007;DHT22;47963;53.008;6.754;2022-11-20T15:28:48;2.60;99.90
62007;DHT22;47963;53.008;6.754;2022-11-20T15:31:18;2.60;99.90
62007;DHT22;47963;53.008;6.754;2022-11-20T15:33:44;2.50;99.90
62007;DHT22;47963;53.008;6.754;2022-11-20T15:36:10;2.60;99.90
62007;DHT22;47963;53.008;6.754;2022-11-20T15:38:36;2.50;99.90
62007;DHT22;47963;53.008;6.754;2022-11-20T15:41:02;2.50;99.90
62007;DHT22;47963;53.008;6.754;2022-11-20T15:43:28;2.50;99.90
62007;DHT22;47963;53.008;6.754;2022-11-20T15:45:59;2.50;99.90
62007;DHT22;47963;53.008;6.754;2022-11-20T15:48:36;2.50;99.90
62007;DHT22;47963;53.008;6.754;2022-11-20T15:51:27;2.50;99.90
62007;DHT22;47963;53.008;6.754;2022-11-20T15:53:55;2.40;99.90
62007;DHT22;47963;53.008;6.754;2022-11-20T15:56:21;2.40;99.90
62007;DHT22;47963;53.008;6.754;2022-11-20T15:58:46;2.40;99.90
62007;DHT22;47963;53.008;6.754;2022-11-20T16:01:14;2.40;99.90
62007;DHT22;47963;53.008;6.754;2022-11-20T16:03:41;2.40;99.90
62007;DHT22;47963;53.008;6.754;2022-11-20T16:06:06;2.40;99.90
62007;DHT22;47963;53.008;6.754;2022-11-20T16:08:32;2.40;99.90
62007;DHT22;47963;53.008;6.754;2022-11-20T16:10:58;2.30;99.90
62007;DHT22;47963;53.008;6.754;2022-11-20T16:13:24;2.40;99.90
62007;DHT22;47963;53.008;6.754;2022-11-20T16:16:25;2.40;99.90
62007;DHT22;47963;53.008;6.754;2022-11-20T16:18:53;2.40;99.90
62007;DHT22;47963;53.008;6.754;2022-11-20T16:21:19;2.30;99.90
62007;DHT22;47963;53.008;6.754;2022-11-20T16:23:45;2.30;99.90
62007;DHT22;47963;53.008;6.754;2022-11-20T16:26:16;2.30;99.90
62007;DHT22;47963;53.008;6.754;2022-11-20T16:28:46;2.30;99.90
62007;DHT22;47963;53.008;6.754;2022-11-20T16:31:16;2.30;99.90
62007;DHT22;47963;53.008;6.754;2022-11-20T16:33:48;2.30;99.90
62007;DHT22;47963;53.008;6.754;2022-11-20T16:36:14;2.30;99.90
62007;DHT22;47963;53.008;6.754;2022-11-20T16:38:40;2.30;99.90
62007;DHT22;47963;53.008;6.754;2022-11-20T16:41:07;2.30;99.90
62007;DHT22;47963;53.008;6.754;2022-11-20T16:43:49;2.40;99.90
62007;DHT22;47963;53.008;6.754;2022-11-20T16:46:17;2.30;99.90
62007;DHT22;47963;53.008;6.754;2022-11-20T16:48:43;2.30;99.90
62007;DHT22;47963;53.008;6.754;2022-11-20T16:51:11;2.30;99.90
62007;DHT22;47963;53.008;6.754;2022-11-20T16:53:37;2.30;99.90
62007;DHT22;47963;53.008;6.754;2022-11-20T16:56:21;2.30;99.90
62007;DHT22;47963;53.008;6.754;2022-11-20T16:58:48;2.40;99.90
62007;DHT22;47963;53.008;6.754;2022-11-20T17:01:17;2.40;99.90
62007;DHT22;47963;53.008;6.754;2022-11-20T17:03:46;2.40;99.90
62007;DHT22;47963;53.008;6.754;2022-11-20T17:06:17;2.40;99.90
62007;DHT22;47963;53.008;6.754;2022-11-20T17:08:44;2.40;99.90
62007;DHT22;47963;53.008;6.754;2022-11-20T17:11:16;2.30;99.90
62007;DHT22;47963;53.008;6.754;2022-11-20T17:13:43;2.30;99.90
62007;DHT22;47963;53.008;6.754;2022-11-20T17:16:14;2.40;99.90
62007;DHT22;47963;53.008;6.754;2022-11-20T17:18:40;2.30;99.90
62007;DHT22;47963;53.008;6.754;2022-11-20T17:21:06;2.30;99.90